Afton, New York
Current Conditions -  °F | °C
As of 6:53 PM on Friday 24 Oct 2014 (Local Time) from KBGM Reporting Station
Clear Clear  
Wind Chill: 11°   Ceiling: Unl
Heat Index: 11°   Visibility: 10mi
Dew Point:   Wind: 8mph
Humidity: 63%   Direction: 310°NW
Pressure: 29.89"   Gusts: NA
Location:  42.23°N, 75.53°W
Report Text: KBGM 242253Z 31007KT 10SM CLR 11/04 A2989 RMK AO2 SLP125 T01060039
Loading
Personal Weather Stations






























Interactive Weather Map
Tropical Storm Tracking
New forecast layout! Learn more

10-Day Weather Forecast

Advertisements
Track Severe Weather on mobile